Prince Rupert, Canada
Current Conditions -  °F | °C
As of 5:06 AM on Sunday 23 Nov 2014 (Local Time) from CYPR Reporting Station
Light Rain Light Rain  
Wind Chill: 41°   Ceiling: 800
Heat Index: 41°   Visibility: 8mi
Dew Point: 41°   Wind: 3mph
Humidity: 100%   Direction: 20°NNE
Pressure: 29.58"   Gusts: NA
Location:  54.31°N, 130.33°W
Report Text: CYPR 231306Z AUTO 02003KT 350V080 8SM -RA OVC008 05/05 A2958 RMK SLP017
Loading
Personal Weather Stations






























Interactive Weather Map New forecast layout! Learn more

10-Day Weather Forecast

Advertisements
Track Severe Weather on mobile